createdAt,value
2022-08-25T00:09:50.555Z,77.10
2022-08-25T00:12:39.385Z,78.00
2022-08-25T00:15:37.214Z,77.10
2022-08-25T00:21:37.192Z,77.20
2022-08-25T00:27:25.159Z,77.20
2022-08-25T00:30:38.358Z,78.10
2022-08-25T00:37:23.781Z,78.10
2022-08-25T00:40:00.434Z,78.80
2022-08-25T00:45:47.371Z,79.90
2022-08-25T01:08:33.292Z,80.00
2022-08-25T01:14:17.670Z,81.10
2022-08-25T01:16:51.060Z,80.90
2022-08-25T01:19:45.042Z,81.90
2022-08-25T01:26:25.142Z,81.30
2022-08-25T01:41:01.280Z,83.00
2022-08-25T01:51:13.306Z,83.40
2022-08-25T02:01:00.189Z,85.30
2022-08-25T02:04:07.669Z,86.20
2022-08-25T02:45:22.525Z,86.10
2022-08-25T02:52:22.829Z,86.20
2022-08-25T03:01:53.019Z,87.10
2022-08-25T03:09:10.943Z,89.00
2022-08-25T03:30:47.023Z,89.50
2022-08-25T03:36:50.201Z,90.00
2022-08-25T03:43:22.809Z,90.50
2022-08-25T04:23:03.164Z,92.30
2022-08-25T04:25:36.862Z,91.70
2022-08-25T04:28:09.090Z,92.60
2022-08-25T04:42:47.303Z,92.00
2022-08-25T04:49:15.619Z,93.20
2022-08-25T04:51:48.008Z,92.10
2022-08-25T04:54:37.095Z,92.40
2022-08-25T05:00:14.267Z,93.20
2022-08-25T05:02:45.071Z,92.20
2022-08-25T05:05:17.670Z,91.80
2022-08-25T05:07:51.873Z,92.00
2022-08-25T05:10:23.328Z,92.70
2022-08-25T05:12:58.553Z,93.00
2022-08-25T05:15:46.090Z,93.00
2022-08-25T05:45:26.862Z,93.50
2022-08-25T05:48:02.836Z,92.40
2022-08-25T05:56:38.790Z,91.80
2022-08-25T06:15:28.004Z,90.90
2022-08-25T06:18:00.699Z,91.10
2022-08-25T06:20:29.570Z,90.90
2022-08-25T06:22:56.375Z,90.50
2022-08-25T06:25:24.518Z,90.10
2022-08-25T06:27:51.226Z,90.20
2022-08-25T06:30:24.345Z,90.00
2022-08-25T06:32:52.484Z,90.20
2022-08-25T06:35:19.603Z,89.50
2022-08-25T06:37:46.554Z,88.70
2022-08-25T06:40:13.687Z,88.50
2022-08-25T06:42:40.431Z,88.30
2022-08-25T06:45:07.430Z,86.80
2022-08-25T06:47:57.429Z,86.70
2022-08-25T06:56:52.815Z,83.60
2022-08-25T07:00:05.397Z,82.10
2022-08-25T07:02:38.748Z,81.10
2022-08-25T07:05:13.208Z,79.20
2022-08-25T07:07:47.220Z,78.00
2022-08-25T07:10:34.030Z,76.80
2022-08-25T07:13:14.754Z,76.00
2022-08-25T07:15:45.950Z,74.80
2022-08-25T07:18:18.007Z,74.00
2022-08-25T07:21:08.957Z,74.20
2022-08-25T07:31:20.870Z,73.40
2022-08-25T07:38:34.214Z,73.40
2022-08-25T07:41:57.386Z,72.20
2022-08-25T07:56:12.521Z,74.40
2022-08-25T08:02:20.465Z,70.20
2022-08-25T08:16:15.105Z,71.10
2022-08-25T08:19:33.663Z,70.90
2022-08-25T08:26:20.688Z,69.40
2022-08-25T08:33:16.506Z,70.60
2022-08-25T08:35:54.043Z,70.80
2022-08-25T08:46:03.148Z,67.60
2022-08-25T09:00:00.635Z,67.80
2022-08-25T09:11:11.005Z,61.30
2022-08-25T09:36:45.335Z,67.10
2022-08-25T10:04:18.865Z,60.20
2022-08-25T10:10:59.990Z,58.90
2022-08-25T11:25:36.471Z,66.60
2022-08-25T11:28:22.632Z,64.40
2022-08-25T11:30:50.355Z,64.00
2022-08-25T11:33:17.615Z,62.10
2022-08-25T11:35:57.182Z,65.40
2022-08-25T11:38:43.639Z,61.30
2022-08-25T11:41:23.833Z,57.00
2022-08-25T11:44:15.928Z,54.40
2022-08-25T11:46:48.282Z,57.30
2022-08-25T11:49:42.415Z,59.40
2022-08-25T11:52:35.643Z,63.20
2022-08-25T11:55:25.708Z,65.50
2022-08-25T11:57:53.987Z,65.30
2022-08-25T12:00:37.096Z,66.80
2022-08-25T12:03:31.815Z,67.00
2022-08-25T12:06:17.193Z,63.30
2022-08-25T12:09:00.590Z,64.60
2022-08-25T12:11:43.753Z,64.30
2022-08-25T12:14:22.559Z,65.00
2022-08-25T12:16:56.181Z,66.50
2022-08-25T12:19:34.968Z,64.20
2022-08-25T12:22:03.663Z,65.00
2022-08-25T12:24:47.959Z,62.90
2022-08-25T12:27:40.204Z,57.40
2022-08-25T12:30:28.966Z,63.80
2022-08-25T12:33:06.718Z,62.20
2022-08-25T12:35:56.823Z,65.40
2022-08-25T12:38:32.715Z,60.10
2022-08-25T12:41:09.046Z,63.50
2022-08-25T12:43:45.999Z,64.90
2022-08-25T12:50:55.425Z,66.20
2022-08-25T13:01:48.068Z,64.60
2022-08-25T13:04:55.642Z,50.80
2022-08-25T13:11:55.061Z,59.60
2022-08-25T13:14:37.927Z,63.00
2022-08-25T13:27:26.724Z,66.30
2022-08-25T13:30:22.076Z,62.30
2022-08-25T13:33:39.551Z,56.40
2022-08-25T13:36:58.707Z,62.80
2022-08-25T13:50:39.212Z,65.00
2022-08-25T13:53:14.808Z,64.20
2022-08-25T13:55:51.039Z,54.60
2022-08-25T13:58:24.317Z,60.40
2022-08-25T14:01:22.927Z,63.10
2022-08-25T14:04:27.211Z,58.40
2022-08-25T14:07:14.304Z,63.60
2022-08-25T14:09:45.350Z,63.60
2022-08-25T14:12:33.066Z,52.80
2022-08-25T14:15:02.188Z,54.00
2022-08-25T14:17:38.187Z,49.80
2022-08-25T14:20:28.957Z,55.40
2022-08-25T14:23:02.170Z,51.10
2022-08-25T14:25:28.939Z,49.80
2022-08-25T14:28:07.518Z,51.70
2022-08-25T14:30:51.919Z,55.20
2022-08-25T14:33:19.739Z,52.30
2022-08-25T14:35:50.469Z,53.90
2022-08-25T14:38:17.859Z,53.60
2022-08-25T14:40:44.619Z,53.40
2022-08-25T14:43:12.130Z,51.80
2022-08-25T14:45:41.520Z,47.20
2022-08-25T14:48:10.449Z,47.70
2022-08-25T14:50:37.461Z,44.80
2022-08-25T14:53:08.007Z,50.20
2022-08-25T14:55:34.916Z,54.30
2022-08-25T14:58:02.182Z,48.30
2022-08-25T15:00:29.101Z,49.80
2022-08-25T15:02:55.757Z,51.60
2022-08-25T15:05:26.969Z,54.40
2022-08-25T15:08:13.612Z,55.50
2022-08-25T15:10:40.543Z,48.70
2022-08-25T15:13:07.237Z,44.40
2022-08-25T15:15:34.937Z,47.60
2022-08-25T15:18:01.632Z,46.90
2022-08-25T15:20:28.325Z,45.70
2022-08-25T15:22:55.821Z,45.20
2022-08-25T15:25:22.776Z,47.40
2022-08-25T15:27:51.111Z,47.00
2022-08-25T15:30:17.842Z,46.40
2022-08-25T15:32:45.166Z,44.50
2022-08-25T15:35:15.489Z,43.50
2022-08-25T15:37:42.205Z,46.50
2022-08-25T15:40:09.368Z,49.50
2022-08-25T15:42:37.840Z,51.80
2022-08-25T15:45:10.360Z,53.50
2022-08-25T15:47:37.159Z,50.30
2022-08-25T15:50:14.174Z,51.00
2022-08-25T15:52:48.715Z,44.90
2022-08-25T15:55:16.340Z,49.90
2022-08-25T15:57:43.045Z,51.60
2022-08-25T16:00:13.653Z,52.20
2022-08-25T16:02:43.486Z,47.50
2022-08-25T16:05:12.280Z,48.40
2022-08-25T16:07:40.201Z,50.50
2022-08-25T16:10:07.913Z,46.60
2022-08-25T16:12:34.602Z,45.80
2022-08-25T16:15:01.657Z,51.30
2022-08-25T16:17:28.312Z,53.70
2022-08-25T16:19:54.950Z,53.00
2022-08-25T16:22:21.626Z,43.80
2022-08-25T16:24:49.013Z,39.30
2022-08-25T16:27:16.031Z,35.40
2022-08-25T16:29:43.805Z,36.00
2022-08-25T16:32:12.108Z,35.30
2022-08-25T16:34:40.603Z,33.60
2022-08-25T16:37:07.296Z,36.40
2022-08-25T16:39:34.083Z,38.40
2022-08-25T16:42:00.725Z,41.00
2022-08-25T16:44:27.831Z,42.20
2022-08-25T16:46:55.231Z,42.40
2022-08-25T16:49:24.456Z,42.70
2022-08-25T16:51:52.223Z,43.40
2022-08-25T16:54:43.485Z,43.90
2022-08-25T16:57:10.743Z,43.20
2022-08-25T16:59:37.382Z,40.50
2022-08-25T17:02:04.234Z,40.30
2022-08-25T17:04:32.154Z,47.10
2022-08-25T17:06:59.423Z,47.20
2022-08-25T17:09:26.068Z,46.10
2022-08-25T17:11:56.618Z,46.70
2022-08-25T17:14:23.420Z,49.80
2022-08-25T17:16:54.457Z,50.50
2022-08-25T17:19:21.290Z,47.30
2022-08-25T17:21:50.617Z,49.10
2022-08-25T17:24:17.661Z,43.80
2022-08-25T17:26:46.293Z,50.40
2022-08-25T17:29:12.927Z,48.50
2022-08-25T17:31:40.198Z,43.70
2022-08-25T17:34:12.041Z,48.70
2022-08-25T17:36:39.813Z,44.10
2022-08-25T17:39:07.652Z,41.80
2022-08-25T17:41:34.357Z,49.40
2022-08-25T17:44:04.602Z,48.80
2022-08-25T17:46:31.357Z,48.00
2022-08-25T17:48:58.116Z,47.50
2022-08-25T17:51:25.174Z,45.90
2022-08-25T17:53:52.754Z,48.70
2022-08-25T17:56:20.983Z,46.60
2022-08-25T17:58:47.656Z,46.60
2022-08-25T18:01:19.234Z,47.00
2022-08-25T18:03:46.307Z,47.10
2022-08-25T18:06:15.119Z,49.30
2022-08-25T18:08:43.083Z,47.60
2022-08-25T18:11:09.831Z,47.80
2022-08-25T18:13:37.550Z,48.10
2022-08-25T18:16:04.888Z,48.40
2022-08-25T18:18:34.285Z,48.20
2022-08-25T18:21:01.811Z,48.90
2022-08-25T18:23:28.637Z,49.30
2022-08-25T18:26:00.899Z,49.70
2022-08-25T18:28:28.766Z,50.20
2022-08-25T18:30:55.784Z,50.70
2022-08-25T18:33:22.974Z,52.50
2022-08-25T18:35:49.625Z,51.90
2022-08-25T18:38:34.727Z,51.40
2022-08-25T18:41:05.503Z,51.50
2022-08-25T18:43:33.919Z,51.90
2022-08-25T18:46:04.292Z,52.20
2022-08-25T18:48:34.408Z,52.20
2022-08-25T18:51:04.830Z,53.00
2022-08-25T18:53:37.113Z,52.90
2022-08-25T18:56:12.635Z,52.50
2022-08-25T18:58:42.974Z,54.40
2022-08-25T19:01:16.117Z,53.70
2022-08-25T19:03:45.635Z,53.60
2022-08-25T19:06:20.087Z,54.40
2022-08-25T19:08:54.813Z,55.00
2022-08-25T19:11:26.688Z,55.40
2022-08-25T19:14:19.729Z,55.40
2022-08-25T19:17:01.063Z,55.30
2022-08-25T19:19:32.869Z,55.40
2022-08-25T19:22:16.590Z,55.50
2022-08-25T19:25:13.166Z,55.60
2022-08-25T19:27:47.074Z,56.70
2022-08-25T19:30:18.605Z,57.20
2022-08-25T19:32:56.676Z,57.80
2022-08-25T19:35:37.912Z,57.10
2022-08-25T19:38:33.812Z,57.00
2022-08-25T19:41:10.518Z,56.90
2022-08-25T19:43:55.062Z,57.80
2022-08-25T19:46:32.613Z,57.70
2022-08-25T19:49:08.376Z,58.10
2022-08-25T19:51:43.891Z,57.70
2022-08-25T20:00:37.195Z,58.80
2022-08-25T20:09:39.273Z,58.90
2022-08-25T20:24:39.435Z,60.70
2022-08-25T20:30:12.835Z,61.60
2022-08-25T20:32:44.589Z,61.20
2022-08-25T20:35:17.983Z,61.20
2022-08-25T20:37:49.994Z,60.70
2022-08-25T20:40:25.872Z,60.90
2022-08-25T20:42:57.141Z,60.90
2022-08-25T20:45:31.354Z,61.80
2022-08-25T20:48:02.274Z,61.80
2022-08-25T20:50:36.823Z,61.80
2022-08-25T20:53:10.320Z,62.10
2022-08-25T20:55:47.094Z,63.20
2022-08-25T20:58:16.932Z,65.00
2022-08-25T21:00:48.787Z,63.10
2022-08-25T21:06:50.071Z,63.40
2022-08-25T21:09:31.541Z,63.40
2022-08-25T21:26:58.392Z,64.30
2022-08-25T21:29:58.990Z,65.40
2022-08-25T22:06:03.449Z,69.30
2022-08-25T22:08:44.954Z,65.50
2022-08-25T22:15:08.326Z,66.30
2022-08-25T22:17:44.066Z,68.20
2022-08-25T22:20:16.270Z,68.10
2022-08-25T22:22:44.411Z,70.50
2022-08-25T22:25:14.021Z,68.90
2022-08-25T22:27:44.444Z,70.10
2022-08-25T22:37:48.445Z,72.50
2022-08-25T22:50:15.001Z,78.50
2022-08-25T22:53:19.855Z,79.00
2022-08-25T22:56:19.653Z,79.90
2022-08-25T23:00:02.513Z,80.80
2022-08-25T23:06:45.929Z,82.70
2022-08-25T23:09:17.634Z,84.70
2022-08-25T23:11:48.831Z,86.20
2022-08-25T23:40:34.352Z,94.10
2022-08-25T23:43:13.149Z,95.70
2022-08-25T23:48:41.009Z,98.70
2022-08-25T23:51:48.676Z,99.00
